Time;durP1;ratioP1;P1;durP2;ratioP2;P2;SDS_P1;SDS_P2;PMS_P1;PMS_P2;Temp;Humidity;BMP_temperature;BMP_pressure;BME280_temperature;BME280_humidity;BME280_pressure;Samples;Min_cycle;Max_cycle;Signal;HPM_P1;HPM_P2
2021/10/23 00:01:34;;;;;;;3.30;1.47;;;;;;;8.39;73.58;97478.28;5082299;28;20172;-67
2021/10/23 00:03:59;;;;;;;2.83;1.47;;;;;;;8.38;73.37;97477.47;5081506;28;20175;-67
2021/10/23 00:06:25;;;;;;;2.87;1.80;;;;;;;8.35;73.63;97477.88;5088498;28;20283;-67
2021/10/23 00:08:51;;;;;;;2.20;1.40;;;;;;;8.37;73.98;97481.06;5107890;28;20191;-67
2021/10/23 00:11:16;;;;;;;2.23;1.43;;;;;;;8.50;73.16;97475.91;5103813;28;20633;-68
2021/10/23 00:13:42;;;;;;;2.37;1.40;;;;;;;8.44;73.80;97468.84;5102063;28;20180;-67
2021/10/23 00:16:08;;;;;;;3.17;1.33;;;;;;;8.25;74.43;97472.97;5101186;28;20208;-67
2021/10/23 00:18:33;;;;;;;4.53;1.70;;;;;;;8.40;73.99;97472.88;5105706;28;20652;-67
2021/10/23 00:20:59;;;;;;;2.80;1.43;;;;;;;8.24;74.40;97471.38;5103813;28;20244;-66
2021/10/23 00:23:24;;;;;;;2.67;1.27;;;;;;;8.31;74.63;97468.78;5097798;28;20172;-67
2021/10/23 00:25:50;;;;;;;3.50;1.40;;;;;;;8.39;74.50;97471.25;5104540;28;20219;-67
2021/10/23 00:28:15;;;;;;;2.83;1.50;;;;;;;8.38;74.52;97467.03;5097882;28;20173;-67
2021/10/23 00:30:41;;;;;;;3.20;1.40;;;;;;;8.16;75.15;97458.47;5100490;28;20184;-67
2021/10/23 00:33:06;;;;;;;2.30;1.20;;;;;;;8.30;74.90;97467.19;5101156;28;20168;-67
2021/10/23 00:35:32;;;;;;;2.47;1.50;;;;;;;8.04;75.61;97473.06;5110840;28;20197;-67
2021/10/23 00:38:00;;;;;;;2.13;1.23;;;;;;;8.16;75.74;97475.94;5103051;28;20183;-67
2021/10/23 00:40:25;;;;;;;1.83;1.40;;;;;;;8.21;75.71;97473.53;5112984;28;20196;-67
2021/10/23 00:42:52;;;;;;;3.47;1.70;;;;;;;8.21;75.94;97473.53;5102048;28;20530;-67
2021/10/23 00:45:18;;;;;;;3.30;1.50;;;;;;;8.36;75.34;97479.47;5102731;28;20256;-67
2021/10/23 00:47:43;;;;;;;2.37;1.43;;;;;;;8.43;74.48;97485.53;5106064;28;20715;-68
2021/10/23 00:50:09;;;;;;;1.23;1.10;;;;;;;8.32;74.93;97483.47;5104579;28;20168;-67
2021/10/23 00:52:35;;;;;;;2.03;1.40;;;;;;;8.30;75.24;97491.47;5102782;28;20554;-67
2021/10/23 00:55:01;;;;;;;3.00;1.30;;;;;;;8.32;75.59;97494.72;5111520;28;20192;-67
2021/10/23 00:57:27;;;;;;;2.87;1.43;;;;;;;8.32;75.35;97491.31;5115336;28;20274;-67
2021/10/23 00:59:52;;;;;;;2.77;1.67;;;;;;;8.38;75.24;97502.78;5107074;28;20731;-68
2021/10/23 01:02:18;;;;;;;3.70;1.70;;;;;;;8.15;76.15;97513.47;5106380;28;20644;-67
2021/10/23 01:04:43;;;;;;;5.60;1.70;;;;;;;8.27;76.02;97509.31;5099332;28;20218;-66
2021/10/23 01:07:09;;;;;;;4.53;1.30;;;;;;;8.14;76.92;97514.47;5106853;28;20169;-67
2021/10/23 01:09:37;;;;;;;5.13;2.00;;;;;;;8.29;76.49;97515.19;5102047;28;20247;-67
2021/10/23 01:12:12;;;;;;;3.03;1.63;;;;;;;8.25;76.58;97516.53;5086998;28;20202;-67
2021/10/23 01:14:40;;;;;;;1.43;1.23;;;;;;;8.36;76.25;97508.19;5111709;28;20274;-67
2021/10/23 01:17:06;;;;;;;7.20;1.53;;;;;;;8.67;75.40;97505.09;5103033;28;20629;-67
2021/10/23 01:19:32;;;;;;;1.73;1.27;;;;;;;8.68;75.15;97506.72;5103741;28;20234;-67
2021/10/23 01:21:58;;;;;;;3.13;1.33;;;;;;;8.52;75.60;97510.50;5100084;28;20173;-67
2021/10/23 01:24:24;;;;;;;2.00;1.40;;;;;;;8.61;75.41;97508.50;5096857;28;20565;-67
2021/10/23 01:26:50;;;;;;;3.17;1.47;;;;;;;8.65;75.22;97512.31;5109289;28;20172;-67
2021/10/23 01:29:18;;;;;;;3.10;1.97;;;;;;;8.60;75.49;97507.69;5106856;28;20609;-68
2021/10/23 01:31:45;;;;;;;2.00;1.30;;;;;;;8.57;75.55;97513.31;5099398;28;20175;-68
2021/10/23 01:34:17;;;;;;;2.27;1.30;;;;;;;8.48;76.14;97511.84;5100223;28;20527;-68
2021/10/23 01:36:45;;;;;;;3.70;1.47;;;;;;;8.62;75.37;97518.75;5104543;28;20542;-68
2021/10/23 01:39:11;;;;;;;2.97;1.40;;;;;;;8.18;77.51;97532.19;5104100;28;20597;-68
2021/10/23 01:41:38;;;;;;;3.73;1.40;;;;;;;8.14;77.77;97535.38;5099288;28;20255;-68
2021/10/23 01:44:04;;;;;;;4.00;1.57;;;;;;;8.26;76.91;97533.81;5091336;28;20191;-68
2021/10/23 01:46:30;;;;;;;2.83;1.27;;;;;;;8.36;76.54;97529.09;5100308;28;20180;-68
2021/10/23 01:48:55;;;;;;;5.77;1.47;;;;;;;8.19;77.21;97531.19;5113560;28;20734;-68
2021/10/23 01:51:21;;;;;;;3.40;1.53;;;;;;;8.29;77.41;97528.22;5104066;28;20215;-68
2021/10/23 01:53:46;;;;;;;1.57;1.47;;;;;;;8.22;77.18;97525.59;5102365;28;20180;-68
2021/10/23 01:56:11;;;;;;;1.70;1.60;;;;;;;8.28;77.25;97534.44;5095991;28;20232;-69
2021/10/23 01:58:37;;;;;;;2.97;1.50;;;;;;;8.17;77.95;97527.97;5097341;28;20204;-68
2021/10/23 02:01:02;;;;;;;2.17;1.57;;;;;;;8.20;77.90;97534.59;5106031;28;20640;-68
2021/10/23 02:03:28;;;;;;;1.77;1.33;;;;;;;8.10;78.21;97534.16;5104138;28;20548;-68
2021/10/23 02:05:53;;;;;;;2.27;1.67;;;;;;;8.17;77.50;97535.00;5105719;28;20227;-68
2021/10/23 02:08:19;;;;;;;6.27;1.80;;;;;;;8.09;77.44;97541.16;5098475;28;20203;-68
2021/10/23 02:10:44;;;;;;;3.60;1.50;;;;;;;8.01;77.62;97532.69;5110603;28;20165;-69
2021/10/23 02:13:10;;;;;;;2.60;1.27;;;;;;;8.02;77.53;97542.16;5108590;28;20716;-68
2021/10/23 02:15:36;;;;;;;4.10;1.90;;;;;;;7.82;77.98;97540.19;5103777;28;20211;-68
2021/10/23 02:18:02;;;;;;;2.33;1.47;;;;;;;8.05;77.29;97544.34;5101638;28;20173;-68
2021/10/23 02:20:33;;;;;;;2.17;1.60;;;;;;;7.81;78.21;97548.22;5109501;28;20689;-68
2021/10/23 02:22:58;;;;;;;3.60;1.83;;;;;;;7.86;78.37;97538.00;5106264;28;20183;-68
2021/10/23 02:25:24;;;;;;;2.17;1.87;;;;;;;7.83;78.19;97541.81;5113102;28;20199;-68
2021/10/23 02:27:49;;;;;;;3.33;1.70;;;;;;;7.78;78.26;97538.16;5098846;28;20555;-68
2021/10/23 02:30:15;;;;;;;2.27;1.37;;;;;;;7.72;78.56;97537.13;5108146;28;20653;-68
2021/10/23 02:32:40;;;;;;;3.63;1.67;;;;;;;7.84;78.34;97535.59;5107500;28;20173;-68
2021/10/23 02:35:06;;;;;;;2.73;1.70;;;;;;;7.75;78.57;97543.75;5104916;28;20207;-68
2021/10/23 02:37:32;;;;;;;4.63;2.00;;;;;;;7.71;78.92;97534.69;5091483;28;20194;-68
2021/10/23 02:39:57;;;;;;;3.13;1.60;;;;;;;7.66;79.34;97537.06;5098541;28;20273;-68
2021/10/23 02:42:23;;;;;;;2.30;2.07;;;;;;;7.70;79.28;97535.69;5105799;28;20241;-69
2021/10/23 02:44:48;;;;;;;1.77;1.50;;;;;;;7.71;78.90;97537.31;5107937;28;20204;-69
2021/10/23 02:47:14;;;;;;;6.90;1.63;;;;;;;7.72;79.31;97542.34;5107567;28;20259;-68
2021/10/23 02:49:39;;;;;;;5.63;1.70;;;;;;;7.70;79.40;97538.28;5097599;28;20216;-67
2021/10/23 02:52:05;;;;;;;4.97;1.70;;;;;;;7.72;79.30;97544.94;5106109;28;20180;-67
2021/10/23 02:54:30;;;;;;;5.40;1.70;;;;;;;7.62;79.85;97543.66;5106505;28;20204;-67
2021/10/23 02:56:56;;;;;;;1.47;1.30;;;;;;;7.67;80.01;97543.91;5111148;28;20314;-67
2021/10/23 02:59:22;;;;;;;3.33;1.70;;;;;;;7.74;79.87;97544.75;5097798;28;20212;-67
2021/10/23 03:01:47;;;;;;;3.43;1.60;;;;;;;7.80;79.61;97549.22;5105790;28;20259;-67
2021/10/23 03:04:13;;;;;;;4.00;1.50;;;;;;;7.83;79.63;97549.63;5093850;28;20173;-67
2021/10/23 03:06:38;;;;;;;2.67;1.70;;;;;;;7.93;79.06;97551.91;5101258;28;20546;-68
2021/10/23 03:09:04;;;;;;;4.63;1.67;;;;;;;8.04;78.83;97550.56;5102445;28;20629;-67
2021/10/23 03:11:29;;;;;;;3.83;1.97;;;;;;;8.17;78.49;97558.50;5099583;28;20175;-68
2021/10/23 03:13:56;;;;;;;3.30;1.73;;;;;;;8.04;78.44;97559.22;5099888;28;20179;-67
2021/10/23 03:16:22;;;;;;;3.77;1.63;;;;;;;8.07;78.14;97560.66;5105418;28;20552;-67
2021/10/23 03:18:48;;;;;;;4.43;1.93;;;;;;;8.14;77.98;97564.09;5104385;28;20210;-67
2021/10/23 03:21:13;;;;;;;5.00;2.00;;;;;;;7.97;78.79;97562.78;5099008;28;20168;-67
2021/10/23 03:23:39;;;;;;;2.60;2.10;;;;;;;7.94;78.63;97561.34;5110393;28;20228;-67
2021/10/23 03:26:04;;;;;;;1.97;1.47;;;;;;;7.98;78.54;97564.38;5102668;28;20668;-68
2021/10/23 03:28:30;;;;;;;4.00;1.67;;;;;;;7.92;79.07;97564.16;5100315;28;20623;-67
2021/10/23 03:30:55;;;;;;;3.73;1.80;;;;;;;8.07;78.29;97558.84;5098099;28;20614;-67
2021/10/23 03:33:21;;;;;;;6.73;2.30;;;;;;;8.04;78.55;97559.22;5107842;28;20687;-67
2021/10/23 03:35:46;;;;;;;1.70;1.60;;;;;;;8.03;78.98;97562.81;5101408;28;20210;-67
2021/10/23 03:38:12;;;;;;;2.30;1.80;;;;;;;8.00;79.27;97571.03;5098774;28;20184;-67
2021/10/23 03:40:37;;;;;;;1.97;1.50;;;;;;;7.97;79.44;97568.78;5099603;28;20173;-67
2021/10/23 03:43:03;;;;;;;3.13;1.67;;;;;;;8.00;79.20;97571.03;5099434;28;20636;-67
2021/10/23 03:45:28;;;;;;;2.33;1.87;;;;;;;8.02;79.31;97563.84;5103863;28;20260;-67
2021/10/23 03:47:54;;;;;;;1.70;1.60;;;;;;;8.05;79.34;97573.06;5101436;28;20190;-67
2021/10/23 03:50:19;;;;;;;2.40;1.57;;;;;;;8.08;79.22;97570.88;5105288;28;20179;-66
2021/10/23 03:52:45;;;;;;;6.30;1.60;;;;;;;8.03;79.50;97562.81;5097710;28;20188;-67
2021/10/23 03:55:11;;;;;;;2.90;1.60;;;;;;;8.10;79.48;97568.09;5080385;28;20199;-67
2021/10/23 03:57:38;;;;;;;1.70;1.60;;;;;;;8.16;79.26;97565.53;5108975;28;20172;-67
2021/10/23 04:00:05;;;;;;;4.77;1.63;;;;;;;8.17;79.69;97574.16;5102690;28;20196;-67
2021/10/23 04:02:31;;;;;;;3.10;1.77;;;;;;;8.20;79.69;97576.38;5103226;28;20176;-67
2021/10/23 04:04:57;;;;;;;3.10;1.43;;;;;;;8.21;79.85;97576.19;5100372;28;20294;-66
2021/10/23 04:07:23;;;;;;;2.63;1.50;;;;;;;8.22;79.87;97574.38;5110417;28;20540;-67
2021/10/23 04:09:49;;;;;;;1.50;1.40;;;;;;;8.17;79.91;97572.34;5105389;28;20160;-67
2021/10/23 04:12:14;;;;;;;2.67;1.77;;;;;;;8.37;79.33;97574.28;5104365;28;20310;-67
2021/10/23 04:14:40;;;;;;;6.53;1.60;;;;;;;8.17;80.13;97579.38;5105840;28;20219;-67
2021/10/23 04:17:05;;;;;;;4.80;2.00;;;;;;;8.25;79.56;97574.00;5103742;28;20289;-66
2021/10/23 04:19:31;;;;;;;3.87;1.70;;;;;;;7.97;80.62;97587.06;5102070;28;20287;-66
2021/10/23 04:21:57;;;;;;;3.33;1.90;;;;;;;8.00;80.46;97589.31;5105792;28;20252;-68
2021/10/23 04:24:23;;;;;;;3.53;2.10;;;;;;;7.77;81.20;97584.31;5108640;28;20204;-67
2021/10/23 04:26:50;;;;;;;3.13;1.70;;;;;;;7.74;81.06;97591.72;5104690;28;20195;-66
2021/10/23 04:29:15;;;;;;;3.47;1.83;;;;;;;7.71;81.02;97590.28;5107607;28;20188;-67
2021/10/23 04:31:41;;;;;;;2.27;1.70;;;;;;;7.83;80.41;97586.19;5110899;28;20544;-66
2021/10/23 04:34:06;;;;;;;4.57;1.90;;;;;;;7.52;81.83;97575.28;5110223;28;20172;-67
2021/10/23 04:36:32;;;;;;;4.20;1.50;;;;;;;7.42;82.44;97578.19;5108913;28;20188;-67
2021/10/23 04:38:57;;;;;;;3.27;1.63;;;;;;;7.59;81.40;97572.72;5100004;28;20200;-67
2021/10/23 04:41:23;;;;;;;7.10;1.70;;;;;;;7.64;81.58;97581.59;5113914;28;20183;-67
2021/10/23 04:43:48;;;;;;;3.40;1.93;;;;;;;7.55;81.97;97579.31;5099965;28;20237;-67
2021/10/23 04:46:13;;;;;;;2.67;1.93;;;;;;;7.66;81.81;97584.84;5104574;28;20212;-67
2021/10/23 04:48:39;;;;;;;2.70;1.97;;;;;;;7.63;81.82;97587.03;5108417;28;20270;-67
2021/10/23 04:51:04;;;;;;;4.50;1.73;;;;;;;7.62;81.89;97588.81;5101271;28;20238;-67
2021/10/23 04:53:30;;;;;;;4.67;2.40;;;;;;;7.68;81.74;97584.66;5109309;28;20205;-67
2021/10/23 04:55:56;;;;;;;4.03;2.10;;;;;;;7.76;81.64;97587.13;5109171;28;20242;-67
2021/10/23 04:58:21;;;;;;;2.93;1.67;;;;;;;7.71;81.73;97582.47;5101197;28;20292;-67
2021/10/23 05:00:46;;;;;;;3.30;1.63;;;;;;;7.89;81.08;97589.84;5107905;28;20177;-67
2021/10/23 05:03:12;;;;;;;3.37;1.80;;;;;;;7.78;81.46;97596.38;5100568;28;20264;-67
2021/10/23 05:05:37;;;;;;;2.77;1.93;;;;;;;7.76;81.85;97600.97;5110117;28;20286;-67
2021/10/23 05:08:03;;;;;;;5.60;2.10;;;;;;;7.87;81.22;97603.06;5101784;28;20183;-67
2021/10/23 05:10:29;;;;;;;2.23;1.73;;;;;;;7.98;80.58;97601.75;5107264;28;20177;-67
2021/10/23 05:12:54;;;;;;;2.67;1.80;;;;;;;7.91;81.10;97606.13;5107496;28;20607;-67
2021/10/23 05:15:20;;;;;;;3.77;1.83;;;;;;;7.96;81.22;97601.13;5104225;28;20688;-67
2021/10/23 05:17:46;;;;;;;7.90;1.60;;;;;;;7.90;81.17;97610.53;5101232;28;20176;-66
2021/10/23 05:20:12;;;;;;;3.67;2.00;;;;;;;7.84;81.12;97600.03;5107706;28;20199;-67
2021/10/23 05:22:38;;;;;;;4.03;2.30;;;;;;;7.77;81.77;97601.78;5112441;28;20192;-67
2021/10/23 05:25:05;;;;;;;2.77;1.93;;;;;;;7.67;82.52;97596.88;5100377;28;20196;-67
2021/10/23 05:27:30;;;;;;;3.27;1.70;;;;;;;7.80;82.23;97602.19;5105210;28;20188;-67
2021/10/23 05:29:56;;;;;;;2.77;2.07;;;;;;;7.90;81.63;97602.69;5100582;28;20185;-67
2021/10/23 05:32:22;;;;;;;5.27;1.90;;;;;;;8.23;79.57;97612.56;5096153;28;20203;-67
2021/10/23 05:34:47;;;;;;;3.00;1.80;;;;;;;7.93;80.92;97606.72;5111195;28;20196;-67
2021/10/23 05:37:14;;;;;;;2.40;2.17;;;;;;;7.93;80.85;97607.53;5104795;28;20180;-67
2021/10/23 05:39:40;;;;;;;2.33;1.73;;;;;;;7.99;80.50;97611.19;5104359;28;20207;-66
2021/10/23 05:42:06;;;;;;;3.50;1.80;;;;;;;7.82;81.67;97618.47;5100266;28;20226;-67
2021/10/23 05:44:31;;;;;;;8.23;2.80;;;;;;;7.87;81.28;97612.69;5103822;28;20204;-67
2021/10/23 05:46:56;;;;;;;7.37;2.43;;;;;;;7.91;81.24;97616.56;5105412;28;20191;-66
2021/10/23 05:49:23;;;;;;;4.27;1.87;;;;;;;7.96;80.69;97611.59;5104904;28;20237;-66
2021/10/23 05:51:49;;;;;;;2.27;1.80;;;;;;;8.05;80.69;97617.44;5106649;28;20345;-67
2021/10/23 05:54:14;;;;;;;3.53;2.03;;;;;;;8.08;80.29;97620.47;5111463;28;20708;-66
2021/10/23 05:56:40;;;;;;;4.70;1.83;;;;;;;7.97;80.95;97622.84;5103148;28;20232;-67
2021/10/23 05:59:12;;;;;;;2.30;1.83;;;;;;;8.04;80.37;97621.88;5100177;28;20201;-66
2021/10/23 06:01:44;;;;;;;4.93;2.13;;;;;;;8.01;80.64;97629.28;5099737;28;20177;-67
2021/10/23 06:04:10;;;;;;;4.17;2.03;;;;;;;7.85;80.88;97631.19;5106387;28;20177;-66
2021/10/23 06:06:38;;;;;;;3.00;2.00;;;;;;;7.98;80.62;97643.50;5085987;28;20211;-69
2021/10/23 06:09:04;;;;;;;4.63;1.93;;;;;;;7.54;82.20;97638.50;5106061;28;20180;-67
2021/10/23 06:11:30;;;;;;;2.70;1.80;;;;;;;7.33;83.43;97639.31;5103622;28;20261;-67
2021/10/23 06:13:58;;;;;;;4.80;1.73;;;;;;;7.52;83.18;97640.50;5100233;28;20336;-66
2021/10/23 06:16:27;;;;;;;2.90;2.10;;;;;;;7.48;83.38;97645.28;5108621;28;20560;-66
2021/10/23 06:18:52;;;;;;;4.97;2.30;;;;;;;7.92;81.80;97654.69;5103545;28;20256;-65
2021/10/23 06:21:19;;;;;;;7.30;2.00;;;;;;;8.05;80.83;97654.00;5109187;28;20208;-65
2021/10/23 06:23:44;;;;;;;2.77;1.90;;;;;;;8.19;80.52;97658.34;5097735;28;20525;-68
2021/10/23 06:26:10;;;;;;;2.63;1.90;;;;;;;8.30;79.80;97661.25;5101586;28;20306;-69
2021/10/23 06:28:39;;;;;;;2.67;1.70;;;;;;;8.46;79.35;97675.03;5106921;28;20210;-65
2021/10/23 06:31:06;;;;;;;3.37;1.60;;;;;;;8.36;79.18;97671.97;5107704;28;20180;-66
2021/10/23 06:33:33;;;;;;;2.00;1.50;;;;;;;8.44;79.34;97664.78;5096255;28;20543;-66
2021/10/23 06:35:59;;;;;;;2.67;1.63;;;;;;;8.42;79.16;97663.34;5107111;28;20690;-67
2021/10/23 06:38:24;;;;;;;2.73;1.87;;;;;;;8.41;79.31;97672.19;5103651;28;20176;-67
2021/10/23 06:40:50;;;;;;;5.57;2.00;;;;;;;8.50;79.01;97671.03;5108008;28;20184;-66
2021/10/23 06:43:15;;;;;;;4.10;1.87;;;;;;;8.55;78.85;97671.25;5097940;28;20180;-67
2021/10/23 06:45:41;;;;;;;2.43;1.57;;;;;;;8.58;78.30;97679.50;5110105;28;20687;-66
2021/10/23 06:48:07;;;;;;;2.37;1.83;;;;;;;8.71;77.97;97679.59;5102825;28;20322;-68
2021/10/23 06:50:33;;;;;;;1.63;1.50;;;;;;;8.66;77.37;97678.56;5102942;28;20183;-67
2021/10/23 06:52:58;;;;;;;7.30;2.07;;;;;;;8.55;77.83;97682.53;5100369;28;20188;-63
2021/10/23 06:55:24;;;;;;;4.07;1.80;;;;;;;8.81;76.86;97684.47;5107127;28;20236;-66
2021/10/23 06:57:49;;;;;;;1.90;1.70;;;;;;;8.63;77.56;97686.81;5101181;28;20543;-65
2021/10/23 07:00:15;;;;;;;2.93;2.27;;;;;;;8.70;77.38;97701.50;5099904;28;20663;-64
2021/10/23 07:02:45;;;;;;;4.03;1.60;;;;;;;8.69;77.57;97699.09;5098786;28;20172;-65
2021/10/23 07:05:12;;;;;;;3.50;1.63;;;;;;;8.69;77.68;97702.50;5111947;28;20616;-65
2021/10/23 07:07:38;;;;;;;2.67;1.70;;;;;;;9.06;77.03;97703.94;5106799;28;20184;-65
2021/10/23 07:10:05;;;;;;;2.73;1.57;;;;;;;9.11;76.01;97705.97;5101052;28;20187;-65
2021/10/23 07:12:30;;;;;;;4.73;1.93;;;;;;;8.99;76.19;97705.69;5107049;28;20251;-65
2021/10/23 07:14:56;;;;;;;2.30;1.67;;;;;;;8.88;76.96;97693.16;5104785;28;20230;-65
2021/10/23 07:17:22;;;;;;;3.63;2.10;;;;;;;9.06;76.13;97700.50;5105636;28;20594;-66
2021/10/23 07:19:48;;;;;;;4.57;1.93;;;;;;;8.96;75.84;97710.50;5106035;28;20195;-66
2021/10/23 07:22:13;;;;;;;3.37;2.00;;;;;;;9.04;75.71;97712.97;5111819;28;20184;-66
2021/10/23 07:24:39;;;;;;;3.00;1.53;;;;;;;8.97;75.94;97712.13;5098320;28;20268;-66
2021/10/23 07:27:04;;;;;;;2.13;1.73;;;;;;;8.90;76.01;97713.91;5099905;28;20589;-66
2021/10/23 07:29:30;;;;;;;5.00;1.83;;;;;;;9.03;75.23;97711.34;5111597;28;20531;-66
2021/10/23 07:31:55;;;;;;;5.03;2.27;;;;;;;9.13;74.80;97714.44;5099175;28;20537;-67
2021/10/23 07:34:21;;;;;;;3.43;1.93;;;;;;;9.19;74.47;97719.66;5109669;28;20211;-66
2021/10/23 07:36:46;;;;;;;5.93;1.87;;;;;;;9.27;74.23;97723.94;5108596;28;20180;-65
2021/10/23 07:39:12;;;;;;;3.77;1.97;;;;;;;9.09;74.53;97719.22;5102818;28;20256;-65
2021/10/23 07:41:38;;;;;;;3.30;2.03;;;;;;;9.12;74.71;97723.28;5106781;28;20177;-65
2021/10/23 07:44:05;;;;;;;4.83;1.87;;;;;;;9.44;74.70;97724.41;5098122;28;20640;-66
2021/10/23 07:46:31;;;;;;;4.47;2.17;;;;;;;9.60;73.96;97727.47;5113577;28;20184;-65
2021/10/23 07:48:56;;;;;;;4.57;2.00;;;;;;;9.87;73.04;97730.97;5101500;28;20236;-67
2021/10/23 07:51:22;;;;;;;3.47;1.77;;;;;;;9.94;71.78;97730.97;5107410;28;20434;-66
2021/10/23 07:53:50;;;;;;;2.37;1.90;;;;;;;10.26;71.03;97737.28;5106746;28;20180;-65
2021/10/23 07:56:15;;;;;;;5.50;1.50;;;;;;;10.26;70.99;97743.34;5108194;28;20243;-68
2021/10/23 07:58:40;;;;;;;3.20;1.80;;;;;;;10.40;69.93;97736.28;5097647;28;20203;-66
2021/10/23 08:01:06;;;;;;;2.80;1.80;;;;;;;10.83;69.50;97741.91;5108324;28;20998;-66
2021/10/23 08:03:31;;;;;;;5.03;1.70;;;;;;;10.88;68.29;97747.34;5105771;28;20711;-67
2021/10/23 08:05:57;;;;;;;3.63;1.70;;;;;;;10.89;69.02;97745.53;5113423;28;20283;-65
